Chedworth Roman Trail
Skip Navigation Links
Results
Team Results
Live Leaderboard
Cirencester AC Races
Events Stats
2 Sep 2018
HyperLink
Click on your name for more detailed race data
Page 1 of 7 (324 items)
[1]234567
Pos
Bib No
Fav
Share
Print
Name
Time *
Chip Time
Category
Cat Pos
Gender
Gen Pos
Club
Dist
Pace
1151James EVE1:02:19.31:02:18.3Top 3 M1Male1HEADINGTON ROAD RUNNERS10 9.6 m/hr
2496David TOMLIN1:03:01.61:03:01.1Top 3 M2Male2CHELTENHAM AND COUNTY HARRIERS10 9.5 m/hr
3315Bill LEGGATE1:05:21.61:05:21.6Top 3 M3Male3CIRENCESTER AC10 9.2 m/hr
4359Charles WOODD1:07:21.61:07:21.6Vet401Male4CIRENCESTER AC10 8.9 m/hr
5153Marc FALLOWS1:08:46.71:08:46.1Vet402Male5CHELTENHAM AND COUNTY HARRIERS10 8.7 m/hr
623Ashley BAWDEN1:09:27.11:09:25.7SenM1Male6 10 8.6 m/hr
7107Martin CRANE1:10:54.21:10:52.4Vet403Male7BEARBROOK RUNNING CLUB 10 8.5 m/hr
8321Anthony LOCK1:11:26.41:11:24.2Vet501Male8WITNEY ROAD RUNNERS10 8.4 m/hr
9520Matthew WATERS1:11:43.91:11:42.5SenM2Male9 10 8.4 m/hr
10469Prashanth Kumar SRIPATHI1:11:51.81:11:48.3SenM3Male10ALMOST ATHLETES10 8.3 m/hr
1131Jonathan BENNETT1:11:56.41:11:55.1SenM4Male11BRISTOL AND WEST AC (EST. 1882)10 8.3 m/hr
12456Ian SMITH1:11:59.01:11:55.5Vet502Male12FOREST OF DEAN AC10 8.3 m/hr
13196Oyvind GRANDE1:12:04.31:12:01.0SenM5Male13 10 8.3 m/hr
1443Christopher BOOTH1:12:28.71:12:28.2SenM6Male14TRING RC10 8.3 m/hr
15102Tom COOPER1:12:50.51:12:47.6SenM7Male15RUNNING SOMEWHERE ELSE10 8.2 m/hr
16152Howard EWAN1:13:02.71:13:00.5SenM8Male16CIRENCESTER AC10 8.2 m/hr
1716David BANNISTER1:13:08.21:13:01.9Vet404Male17HOOK NORTON HARRIERS 10 8.2 m/hr
18430Ben ROSEDALE1:13:56.91:13:53.1Vet405Male18CIRENCESTER AC10 8.1 m/hr
1935Richard BIRCH1:14:31.61:14:29.0Vet406Male19ALMOST ATHLETES10 8.1 m/hr
20324Dave LOWTHIAN1:15:06.71:15:03.0Vet503Male20FOREST OF DEAN AC10 8.0 m/hr
21185Peter GILDER1:15:49.11:15:47.1Vet407Male21SWINDON STRIDERS10 7.9 m/hr
22512Michael WALKER1:15:56.61:15:53.5SenM9Male22EMERSONS GREEN RUNNING CLUB10 7.9 m/hr
23479Ross SWAIN1:16:08.11:16:06.1SenM10Male23 10 7.9 m/hr
24310Mark LAMBELL1:16:18.91:16:16.5SenM11Male24WEST END RUNNERS10 7.9 m/hr
25108Leo CRAWFORD1:16:32.91:16:31.0Vet408Male25CIRENCESTER AC10 7.8 m/hr
26312Lee LAWRENCE1:16:55.81:16:38.2SenM12Male26CIRENCESTER AC10 7.8 m/hr
27111John DAISLEY1:16:59.51:16:56.1Vet409Male27 10 7.8 m/hr
28311Ellie LANEY1:17:14.01:17:11.4Top 3 F1Female1ALMOST ATHLETES10 7.8 m/hr
29537Royston WILLIAMS1:17:19.41:17:13.1Vet4010Male28HOOK NORTON HARRIERS 10 7.8 m/hr
30521Ben WATSON1:17:25.31:17:19.0Vet4011Male29ABINGDON AC10 7.7 m/hr
3118Paul BARNES1:17:35.71:17:31.9Vet504Male30CHELTENHAM AND COUNTY HARRIERS10 7.7 m/hr
3279Henry CHURCH1:17:45.01:17:42.6Vet4012Male31RUNNING SOMEWHERE ELSE10 7.7 m/hr
33471Michael STEVENSON1:17:51.11:17:27.6Vet505Male32STROUD & DISTRICT AC10 7.7 m/hr
34250Callum HODNETT1:18:05.51:17:54.8SenM13Male33WITNEY ROAD RUNNERS10 7.7 m/hr
35120Laura DAVISON1:18:20.71:18:08.1Top 3 F2Female2WEST END RUNNERS10 7.7 m/hr
36163Daniel FINCHETT1:18:46.41:18:06.5Vet4013Male34CIRENCESTER AC10 7.6 m/hr
37323Sian LOVELESS1:19:00.21:18:51.7Top 3 F3Female3DIDCOT RUNNERS10 7.6 m/hr
38509Adam WALKER1:19:04.11:19:00.9SenM14Male35 10 7.6 m/hr
39132Stu DUDFIELD1:19:31.31:19:23.0Vet4014Male36TEWKESBURY RUNNING CLUB10 7.5 m/hr
40133Nigel TILLOTT1:19:34.51:19:28.4Vet506Male37 10 7.5 m/hr
41450Ian SHELLEY1:19:36.71:19:05.6Vet507Male38CITY OF SALISBURY AC & RC10 7.5 m/hr
42271Terry JEWELL-DAVIES1:19:45.51:19:43.9Vet508Male39WESTBURY HARRIERS10 7.5 m/hr
43135Mark DYER1:20:29.01:20:27.6SenM15Male40STROUD & DISTRICT AC10 7.5 m/hr
4465Shaun CARR1:20:42.31:20:35.3Vet4015Male41ALMOST ATHLETES10 7.4 m/hr
45123Luiz DECA1:20:59.81:20:55.3SenM16Male42 10 7.4 m/hr
4661Amber BULLINGHAM1:21:02.31:20:59.5SenF1Female4ALMOST ATHLETES10 7.4 m/hr
47263Ionel IANCU1:21:05.51:20:49.2Vet4016Male43CIRENCESTER AC10 7.4 m/hr
48382Michelle PANK1:21:05.51:21:00.2SenF2Female5 10 7.4 m/hr
49203Rob HADLEY1:21:15.71:21:07.2SenM17Male44 10 7.4 m/hr
5087James CLARK1:21:40.61:21:36.9SenM18Male45WITNEY ROAD RUNNERS10 7.3 m/hr
Page 1 of 7 (324 items)
[1]234567
fb

HyperLink Copyright (c) G Vincent, 2018